Time;durP1;ratioP1;P1;durP2;ratioP2;P2;SDS_P1;SDS_P2;PMS_P1;PMS_P2;Temp;Humidity;BMP_temperature;BMP_pressure;BME280_temperature;BME280_humidity;BME280_pressure;Samples;Min_cycle;Max_cycle;Signal;HPM_P1;HPM_P2
2022/09/05 00:05:16;;;;;;;4.60;1.98;;;17.50;99.90;;;;;;20992869;28;20042;-80
2022/09/05 00:15:23;;;;;;;5.47;2.20;;;17.30;99.90;;;;;;20931694;28;20048;-80
2022/09/05 00:25:45;;;;;;;2.95;2.17;;;17.20;99.90;;;;;;21016784;28;20086;-77
2022/09/05 00:35:52;;;;;;;4.90;2.33;;;17.10;99.90;;;;;;20999048;28;20048;-79
2022/09/05 00:46:02;;;;;;;3.30;2.00;;;17.00;99.90;;;;;;20992456;22;20045;-79
2022/09/05 00:56:06;;;;;;;9.40;2.38;;;16.90;99.90;;;;;;20884138;28;20049;-79
2022/09/05 01:06:27;;;;;;;6.70;3.10;;;16.70;99.90;;;;;;20835958;28;20093;-80
2022/09/05 01:16:50;;;;;;;5.47;2.42;;;16.60;99.90;;;;;;20835411;28;20057;-76
2022/09/05 01:27:28;;;;;;;7.50;2.83;;;16.50;99.90;;;;;;20835058;28;20041;-80
2022/09/05 01:37:55;;;;;;;4.70;2.85;;;16.60;99.90;;;;;;20834667;28;20578;-79
2022/09/05 01:48:03;;;;;;;3.17;2.40;;;16.20;99.90;;;;;;20851120;28;20048;-77
2022/09/05 01:58:26;;;;;;;2.95;2.30;;;16.10;99.90;;;;;;20831713;28;20056;-80
2022/09/05 02:08:59;;;;;;;4.80;2.30;;;16.10;99.90;;;;;;20831096;28;20037;-80
2022/09/05 02:19:09;;;;;;;3.10;2.00;;;16.00;99.90;;;;;;20849519;28;20030;-80
2022/09/05 02:29:19;;;;;;;3.55;2.15;;;15.90;99.90;;;;;;20832198;28;20408;-80
2022/09/05 02:39:51;;;;;;;7.03;2.80;;;15.90;99.90;;;;;;20825301;28;20109;-79
2022/09/05 02:50:17;;;;;;;7.93;3.00;;;15.60;99.90;;;;;;20812141;28;20049;-79
2022/09/05 03:00:25;;;;;;;3.53;2.17;;;15.50;99.90;;;;;;20864839;28;20048;-79
2022/09/05 03:10:35;;;;;;;5.68;2.30;;;15.50;99.90;;;;;;20863968;28;20034;-79
2022/09/05 03:21:06;;;;;;;3.63;2.92;;;15.40;99.90;;;;;;20863455;28;20076;-79
2022/09/05 03:31:37;;;;;;;5.20;3.50;;;15.40;99.90;;;;;;20835755;28;20045;-80
2022/09/05 03:41:54;;;;;;;7.85;3.97;;;15.40;99.90;;;;;;20841753;28;20127;-78
2022/09/05 03:52:04;;;;;;;3.95;2.92;;;15.30;99.90;;;;;;20857628;28;20408;-79
2022/09/05 04:02:08;;;;;;;3.72;2.75;;;15.20;99.90;;;;;;20824341;28;20045;-80
2022/09/05 04:12:18;;;;;;;8.70;3.25;;;15.20;99.90;;;;;;20841759;28;20547;-79
2022/09/05 04:22:27;;;;;;;9.63;3.03;;;15.20;99.90;;;;;;20837508;28;20045;-79
2022/09/05 04:32:47;;;;;;;7.63;3.60;;;15.20;99.90;;;;;;20855306;28;20506;-80
2022/09/05 04:42:50;;;;;;;9.27;3.63;;;15.00;99.90;;;;;;20818101;28;20384;-78
2022/09/05 04:53:09;;;;;;;11.10;4.57;;;15.00;99.90;;;;;;20853447;28;20045;-78
2022/09/05 05:03:21;;;;;;;6.00;4.80;;;14.80;99.90;;;;;;20830396;28;20069;-79
2022/09/05 05:13:22;;;;;;;;;;;14.90;99.90;;;;;;20829333;28;20450;-78
2022/09/05 05:23:38;;;;;;;4.30;2.65;;;14.80;99.90;;;;;;20831095;28;20334;-79
2022/09/05 05:33:39;;;;;;;8.20;3.35;;;14.70;99.90;;;;;;20843409;28;20037;-79
2022/09/05 05:43:40;;;;;;;;;;;14.70;99.90;;;;;;20897763;28;20140;-80
2022/09/05 05:54:05;;;;;;;2.95;2.28;;;15.10;99.90;;;;;;20931102;28;19919;-80
2022/09/05 06:04:15;;;;;;;8.52;2.95;;;15.40;99.90;;;;;;20913692;28;20052;-80
2022/09/05 06:14:54;;;;;;;8.85;3.60;;;15.30;99.90;;;;;;20912961;28;20037;-79
2022/09/05 06:25:25;;;;;;;7.78;3.72;;;15.60;99.90;;;;;;20911814;28;20044;-80
2022/09/05 06:35:55;;;;;;;5.05;4.05;;;16.40;99.90;;;;;;20913357;28;20049;-80
2022/09/05 06:46:35;;;;;;;7.25;3.70;;;17.20;99.90;;;;;;20914475;22;20052;-77
2022/09/05 06:56:44;;;;;;;8.07;3.72;;;17.50;99.90;;;;;;20981903;28;20097;-78
2022/09/05 07:07:01;;;;;;;3.85;2.67;;;18.80;99.90;;;;;;20995425;28;20041;-78
2022/09/05 07:17:24;;;;;;;6.32;2.72;;;19.70;99.90;;;;;;20994868;28;20091;-77
2022/09/05 07:27:59;;;;;;;9.15;3.13;;;19.20;99.90;;;;;;20988626;28;20040;-78
2022/09/05 07:38:12;;;;;;;5.38;2.42;;;18.90;99.90;;;;;;21005916;28;20041;-77
2022/09/05 07:48:28;;;;;;;3.85;2.50;;;20.30;99.90;;;;;;21010058;28;20045;-78
2022/09/05 07:58:42;;;;;;;3.95;2.40;;;20.10;99.90;;;;;;20972509;28;20041;-77
2022/09/05 08:09:07;;;;;;;3.85;2.63;;;20.00;99.90;;;;;;21006128;28;20579;-77
2022/09/05 08:19:48;;;;;;;4.15;2.30;;;19.80;99.90;;;;;;20988990;28;20093;-78
2022/09/05 08:30:05;;;;;;;4.32;2.65;;;19.60;99.90;;;;;;21003438;28;20029;-78
2022/09/05 08:40:18;;;;;;;4.97;2.97;;;19.70;99.90;;;;;;21002864;28;20111;-77
2022/09/05 08:50:34;;;;;;;5.53;3.17;;;19.80;99.90;;;;;;20999380;28;20110;-77
2022/09/05 09:00:50;;;;;;;4.43;2.70;;;19.80;99.90;;;;;;21004093;28;20036;-77
2022/09/05 09:11:04;;;;;;;7.05;3.05;;;19.90;99.90;;;;;;21003840;28;20029;-78
2022/09/05 09:21:33;;;;;;;8.23;3.08;;;20.20;99.90;;;;;;21004370;28;20028;-78
2022/09/05 09:31:51;;;;;;;5.75;2.72;;;19.80;99.90;;;;;;21003506;28;20079;-78
2022/09/05 09:42:16;;;;;;;5.40;3.00;;;20.00;99.90;;;;;;20985231;28;20036;-78
2022/09/05 09:52:43;;;;;;;5.05;3.42;;;19.90;99.90;;;;;;20997957;28;20062;-77
2022/09/05 10:03:00;;;;;;;8.40;4.30;;;19.90;99.90;;;;;;20956964;28;20124;-76
2022/09/05 10:13:48;;;;;;;6.38;4.13;;;20.30;99.90;;;;;;20993685;28;20045;-77
2022/09/05 10:24:17;;;;;;;5.05;3.40;;;21.20;99.90;;;;;;20959575;28;20128;-77
2022/09/05 10:34:23;;;;;;;6.82;3.80;;;22.60;99.90;;;;;;20994176;28;20564;-77
2022/09/05 10:44:39;;;;;;;4.57;3.60;;;23.60;99.90;;;;;;20992320;28;20059;-77
2022/09/05 10:55:04;;;;;;;9.40;3.95;;;23.20;99.90;;;;;;20994233;28;20098;-78
2022/09/05 11:05:23;;;;;;;3.33;2.92;;;22.80;99.90;;;;;;20996276;28;20060;-78
2022/09/05 11:15:53;;;;;;;6.80;3.47;;;23.00;99.90;;;;;;21014397;28;20530;-78
2022/09/05 11:26:00;;;;;;;6.18;3.50;;;23.50;99.90;;;;;;21011623;28;20048;-78
2022/09/05 11:36:36;;;;;;;6.75;3.35;;;24.20;99.90;;;;;;21023771;28;20063;-77
2022/09/05 11:47:01;;;;;;;5.25;3.35;;;24.10;99.90;;;;;;21002360;28;20050;-77
2022/09/05 11:57:10;;;;;;;8.77;3.97;;;23.80;99.90;;;;;;21003467;28;20064;-78
2022/09/05 12:07:29;;;;;;;7.90;3.35;;;23.90;99.90;;;;;;21010290;28;20052;-78
2022/09/05 12:17:33;;;;;;;4.95;2.90;;;26.10;99.90;;;;;;21011584;28;20037;-79
2022/09/05 12:27:36;;;;;;;6.70;3.20;;;27.30;99.90;;;;;;21011587;28;20037;-79
2022/09/05 12:38:03;;;;;;;10.20;3.08;;;27.60;99.90;;;;;;21011762;28;20411;-78
2022/09/05 12:48:29;;;;;;;3.83;2.40;;;27.00;99.90;;;;;;21017692;22;20076;-82
2022/09/05 12:58:34;;;;;;;6.53;3.08;;;27.90;99.90;;;;;;20911352;28;20045;-80
2022/09/05 13:08:47;;;;;;;6.38;3.25;;;27.20;99.90;;;;;;20910586;28;20037;-81
2022/09/05 13:18:52;;;;;;;4.70;2.53;;;28.70;99.90;;;;;;20927088;28;20099;-82
2022/09/05 13:29:54;;;;;;;5.18;2.35;;;29.10;99.90;;;;;;20934798;28;20037;-79
2022/09/05 13:39:58;;;;;;;6.22;2.08;;;28.40;99.90;;;;;;20970683;28;20132;-80
2022/09/05 13:50:06;;;;;;;4.07;2.00;;;28.90;99.90;;;;;;20982820;28;20045;-82
2022/09/05 14:00:09;;;;;;;6.63;2.08;;;29.30;99.90;;;;;;20983465;28;20041;-81
2022/09/05 14:10:39;;;;;;;5.63;2.00;;;29.20;99.90;;;;;;20900242;28;20045;-82
2022/09/05 14:31:12;;;;;;;5.13;1.95;;;29.20;99.90;;;;;;20921545;28;20045;-83
2022/09/05 14:42:01;;;;;;;5.72;1.80;;;30.00;99.90;;;;;;20906737;28;20050;-83
2022/09/05 14:52:25;;;;;;;7.57;1.73;;;29.80;99.90;;;;;;20981660;28;20055;-83
2022/09/05 15:02:46;;;;;;;2.97;1.50;;;29.70;99.90;;;;;;21040950;28;20111;-83
2022/09/05 15:13:06;;;;;;;4.50;1.80;;;30.00;99.90;;;;;;21012643;28;20045;-82
2022/09/05 15:23:14;;;;;;;4.38;1.80;;;29.60;99.90;;;;;;21002739;28;20039;-83
2022/09/05 15:33:22;;;;;;;3.33;1.40;;;29.60;99.90;;;;;;21001670;28;20040;-83
2022/09/05 15:43:23;;;;;;;5.45;1.50;;;29.20;99.90;;;;;;20984878;28;20101;-81
2022/09/05 15:53:32;;;;;;;3.38;1.40;;;29.40;99.90;;;;;;20993433;28;20037;-81
2022/09/05 16:03:34;;;;;;;4.32;1.67;;;28.50;99.90;;;;;;20950709;28;20039;-79
2022/09/05 16:13:42;;;;;;;5.95;1.90;;;27.50;99.90;;;;;;20999466;28;20048;-80
2022/09/05 16:23:53;;;;;;;4.22;2.08;;;27.20;99.90;;;;;;21017992;28;20041;-80
2022/09/05 16:33:53;;;;;;;;;;;27.00;99.90;;;;;;20982820;28;20048;-79
2022/09/05 16:44:00;;;;;;;2.93;1.77;;;26.80;99.90;;;;;;21001210;28;20299;-80
2022/09/05 16:54:21;;;;;;;3.92;1.42;;;26.50;99.90;;;;;;21015016;28;20082;-78
2022/09/05 17:04:40;;;;;;;8.17;1.90;;;26.40;99.90;;;;;;21034509;28;20051;-79
2022/09/05 17:14:45;;;;;;;6.28;1.63;;;26.10;99.90;;;;;;21081691;28;20040;-79
2022/09/05 17:25:02;;;;;;;6.05;2.00;;;25.40;99.90;;;;;;21036786;28;20127;-79
2022/09/05 17:35:28;;;;;;;4.00;1.85;;;25.10;99.90;;;;;;20993942;28;20039;-78
2022/09/05 17:45:55;;;;;;;5.40;1.65;;;24.30;99.90;;;;;;21006417;28;20037;-78
2022/09/05 17:55:56;;;;;;;2.67;1.90;;;23.90;99.90;;;;;;21005065;28;20044;-77
2022/09/05 18:06:02;;;;;;;4.83;2.00;;;23.30;99.90;;;;;;21045851;28;20064;-80
2022/09/05 18:16:09;;;;;;;7.00;1.80;;;23.20;99.90;;;;;;21091972;28;20093;-79
2022/09/05 18:26:23;;;;;;;3.22;2.08;;;23.10;99.90;;;;;;20983803;28;20056;-78
2022/09/05 18:36:25;;;;;;;4.57;2.17;;;23.00;99.90;;;;;;21006509;28;20118;-78
2022/09/05 18:46:40;;;;;;;8.87;1.47;;;22.40;99.90;;;;;;21006919;22;20048;-74
2022/09/05 18:56:50;;;;;;;4.15;1.85;;;22.30;99.90;;;;;;20988707;28;20045;-75
2022/09/05 19:06:52;;;;;;;6.50;2.20;;;22.10;99.90;;;;;;20989154;28;20375;-75
2022/09/05 19:17:02;;;;;;;10.43;2.70;;;21.90;99.90;;;;;;20987660;28;20063;-74
2022/09/05 19:27:06;;;;;;;3.13;2.00;;;21.80;99.90;;;;;;21004074;28;20033;-74
2022/09/05 19:37:11;;;;;;;11.25;4.60;;;21.40;99.90;;;;;;21038706;28;20107;-74
2022/09/05 19:47:28;;;;;;;3.55;2.50;;;21.40;99.90;;;;;;21021936;28;20048;-74
2022/09/05 19:57:29;;;;;;;5.57;2.53;;;21.10;99.90;;;;;;20946625;28;20047;-74
2022/09/05 20:07:31;;;;;;;;;;;20.90;99.90;;;;;;21038230;28;20106;-76
2022/09/05 20:17:33;;;;;;;6.60;2.50;;;20.30;99.90;;;;;;21037985;28;19919;-74
2022/09/05 20:27:35;;;;;;;5.03;2.30;;;19.90;99.90;;;;;;21037993;28;20059;-75
2022/09/05 20:37:36;;;;;;;4.72;2.38;;;20.00;99.90;;;;;;21034358;28;20040;-76
2022/09/05 20:47:47;;;;;;;6.15;2.90;;;20.10;99.90;;;;;;21007562;28;20383;-75
2022/09/05 20:57:49;;;;;;;8.00;2.87;;;19.50;99.90;;;;;;20997123;28;20514;-75
2022/09/05 21:07:51;;;;;;;4.47;2.58;;;19.30;99.90;;;;;;21051504;28;20089;-75
2022/09/05 21:18:00;;;;;;;3.70;2.50;;;19.40;99.90;;;;;;21078315;28;20044;-76
2022/09/05 21:28:31;;;;;;;4.72;3.00;;;19.40;99.90;;;;;;21056800;28;20560;-75
2022/09/05 21:38:37;;;;;;;3.25;2.35;;;19.50;99.90;;;;;;20992481;28;20040;-75
2022/09/05 21:48:37;;;;;;;10.23;2.85;;;19.10;99.90;;;;;;20991950;28;20040;-75
2022/09/05 21:58:40;;;;;;;5.67;2.43;;;18.90;99.90;;;;;;20991568;28;20394;-75
2022/09/05 22:08:41;;;;;;;7.68;2.90;;;18.60;99.90;;;;;;20993911;28;20450;-76
2022/09/05 22:18:44;;;;;;;7.27;2.50;;;18.40;99.90;;;;;;20972150;28;20040;-76
2022/09/05 22:28:48;;;;;;;3.92;2.97;;;18.10;99.90;;;;;;20971754;28;20076;-75
2022/09/05 22:38:49;;;;;;;8.40;3.08;;;17.60;99.90;;;;;;20971160;28;20109;-74
2022/09/05 22:48:49;;;;;;;5.57;3.00;;;17.60;99.90;;;;;;20988833;28;20059;-75
2022/09/05 22:58:50;;;;;;;4.03;2.90;;;17.80;99.90;;;;;;20984939;28;20118;-75
2022/09/05 23:08:51;;;;;;;10.67;3.47;;;18.00;99.90;;;;;;21005051;28;20526;-75
2022/09/05 23:18:52;;;;;;;5.57;3.17;;;18.30;99.90;;;;;;21003742;28;20072;-75
2022/09/05 23:28:53;;;;;;;6.30;3.10;;;18.30;99.90;;;;;;20985212;28;20068;-75
2022/09/05 23:38:53;;;;;;;4.03;2.73;;;18.20;99.90;;;;;;21002191;28;20162;-74
2022/09/05 23:48:54;;;;;;;5.97;2.90;;;18.10;99.90;;;;;;21002082;28;20040;-74
2022/09/05 23:58:56;;;;;;;5.03;3.07;;;18.10;99.90;;;;;;21001225;28;20465;-75
